sensor_id;sensor_type;location;lat;lon;timestamp;temperature;humidity
18305;DHT22;9278;52.156;21.048;2022-07-04T00:01:53;17.90;99.90
18305;DHT22;9278;52.156;21.048;2022-07-04T00:04:22;17.80;99.90
18305;DHT22;9278;52.156;21.048;2022-07-04T00:06:51;17.80;99.90
18305;DHT22;9278;52.156;21.048;2022-07-04T00:09:19;17.90;99.90
18305;DHT22;9278;52.156;21.048;2022-07-04T00:11:47;17.90;99.90
18305;DHT22;9278;52.156;21.048;2022-07-04T00:14:15;17.90;99.90
18305;DHT22;9278;52.156;21.048;2022-07-04T00:16:43;17.80;99.90
18305;DHT22;9278;52.156;21.048;2022-07-04T00:19:11;17.70;99.90
18305;DHT22;9278;52.156;21.048;2022-07-04T00:21:41;17.60;99.90
18305;DHT22;9278;52.156;21.048;2022-07-04T00:24:09;17.50;99.90
18305;DHT22;9278;52.156;21.048;2022-07-04T00:26:37;17.40;99.90
18305;DHT22;9278;52.156;21.048;2022-07-04T00:29:05;17.40;99.90
18305;DHT22;9278;52.156;21.048;2022-07-04T00:31:33;17.20;99.90
18305;DHT22;9278;52.156;21.048;2022-07-04T00:34:02;17.10;99.90
18305;DHT22;9278;52.156;21.048;2022-07-04T00:36:30;17.20;99.90
18305;DHT22;9278;52.156;21.048;2022-07-04T00:39:00;17.10;1.00
18305;DHT22;9278;52.156;21.048;2022-07-04T00:41:28;17.10;1.00
18305;DHT22;9278;52.156;21.048;2022-07-04T00:44:03;17.10;1.00
18305;DHT22;9278;52.156;21.048;2022-07-04T00:46:40;17.10;1.00
18305;DHT22;9278;52.156;21.048;2022-07-04T00:49:09;17.10;1.00
18305;DHT22;9278;52.156;21.048;2022-07-04T00:51:38;17.20;1.00
18305;DHT22;9278;52.156;21.048;2022-07-04T00:54:10;17.10;1.00
18305;DHT22;9278;52.156;21.048;2022-07-04T00:56:40;17.00;1.00
18305;DHT22;9278;52.156;21.048;2022-07-04T00:59:08;17.00;1.00
18305;DHT22;9278;52.156;21.048;2022-07-04T01:01:37;16.90;1.00
18305;DHT22;9278;52.156;21.048;2022-07-04T01:04:06;16.90;1.00
18305;DHT22;9278;52.156;21.048;2022-07-04T01:06:34;16.90;1.00
18305;DHT22;9278;52.156;21.048;2022-07-04T01:09:03;17.00;1.00
18305;DHT22;9278;52.156;21.048;2022-07-04T01:11:33;16.90;1.00
18305;DHT22;9278;52.156;21.048;2022-07-04T01:14:02;16.90;1.00
18305;DHT22;9278;52.156;21.048;2022-07-04T01:16:32;16.80;1.00
18305;DHT22;9278;52.156;21.048;2022-07-04T01:19:01;16.80;1.00
18305;DHT22;9278;52.156;21.048;2022-07-04T01:21:32;16.70;1.00
18305;DHT22;9278;52.156;21.048;2022-07-04T01:24:00;16.80;1.00
18305;DHT22;9278;52.156;21.048;2022-07-04T01:26:28;16.80;1.00
18305;DHT22;9278;52.156;21.048;2022-07-04T01:28:57;16.70;1.00
18305;DHT22;9278;52.156;21.048;2022-07-04T01:31:25;16.60;1.00
18305;DHT22;9278;52.156;21.048;2022-07-04T01:33:53;16.70;1.00
18305;DHT22;9278;52.156;21.048;2022-07-04T01:36:21;16.60;1.00
18305;DHT22;9278;52.156;21.048;2022-07-04T01:38:51;16.60;1.00
18305;DHT22;9278;52.156;21.048;2022-07-04T01:41:19;16.60;1.00
18305;DHT22;9278;52.156;21.048;2022-07-04T01:43:47;17.20;1.00
18305;DHT22;9278;52.156;21.048;2022-07-04T01:46:15;16.90;1.00
18305;DHT22;9278;52.156;21.048;2022-07-04T01:48:43;16.80;1.00
18305;DHT22;9278;52.156;21.048;2022-07-04T01:51:11;16.80;1.00
18305;DHT22;9278;52.156;21.048;2022-07-04T01:53:39;17.00;1.00
18305;DHT22;9278;52.156;21.048;2022-07-04T01:56:09;17.00;1.00
18305;DHT22;9278;52.156;21.048;2022-07-04T01:58:37;17.00;1.00
18305;DHT22;9278;52.156;21.048;2022-07-04T02:01:05;16.80;1.00
18305;DHT22;9278;52.156;21.048;2022-07-04T02:03:51;16.60;1.00
18305;DHT22;9278;52.156;21.048;2022-07-04T02:06:19;16.70;1.00
18305;DHT22;9278;52.156;21.048;2022-07-04T02:08:47;16.60;1.00
18305;DHT22;9278;52.156;21.048;2022-07-04T02:11:34;16.70;1.00
18305;DHT22;9278;52.156;21.048;2022-07-04T02:14:16;16.70;1.00
18305;DHT22;9278;52.156;21.048;2022-07-04T02:16:45;16.70;1.00
18305;DHT22;9278;52.156;21.048;2022-07-04T02:19:13;16.70;1.00
18305;DHT22;9278;52.156;21.048;2022-07-04T02:21:41;16.60;1.00
18305;DHT22;9278;52.156;21.048;2022-07-04T02:24:09;16.50;1.00
18305;DHT22;9278;52.156;21.048;2022-07-04T02:26:39;16.60;1.00
18305;DHT22;9278;52.156;21.048;2022-07-04T02:29:07;16.60;1.00
18305;DHT22;9278;52.156;21.048;2022-07-04T02:31:35;16.50;1.00
18305;DHT22;9278;52.156;21.048;2022-07-04T02:34:03;16.50;1.00
18305;DHT22;9278;52.156;21.048;2022-07-04T02:36:31;16.70;1.00
18305;DHT22;9278;52.156;21.048;2022-07-04T02:38:59;16.70;1.00
18305;DHT22;9278;52.156;21.048;2022-07-04T02:41:27;16.80;1.00
18305;DHT22;9278;52.156;21.048;2022-07-04T02:43:57;16.80;1.00
18305;DHT22;9278;52.156;21.048;2022-07-04T02:46:25;16.90;1.00
18305;DHT22;9278;52.156;21.048;2022-07-04T02:48:54;16.80;1.00
18305;DHT22;9278;52.156;21.048;2022-07-04T02:51:22;16.80;1.00
18305;DHT22;9278;52.156;21.048;2022-07-04T02:53:50;16.80;1.00
18305;DHT22;9278;52.156;21.048;2022-07-04T02:56:18;16.80;1.00
18305;DHT22;9278;52.156;21.048;2022-07-04T02:58:47;16.80;1.00
18305;DHT22;9278;52.156;21.048;2022-07-04T03:01:17;16.80;1.00
18305;DHT22;9278;52.156;21.048;2022-07-04T03:03:47;16.80;1.00
18305;DHT22;9278;52.156;21.048;2022-07-04T03:06:15;16.80;1.00
18305;DHT22;9278;52.156;21.048;2022-07-04T03:08:43;16.80;1.00
18305;DHT22;9278;52.156;21.048;2022-07-04T03:11:12;16.80;1.00
18305;DHT22;9278;52.156;21.048;2022-07-04T03:13:40;16.80;1.00
18305;DHT22;9278;52.156;21.048;2022-07-04T03:16:09;16.90;1.00
18305;DHT22;9278;52.156;21.048;2022-07-04T03:18:38;16.90;1.00
18305;DHT22;9278;52.156;21.048;2022-07-04T03:21:06;17.00;1.00
18305;DHT22;9278;52.156;21.048;2022-07-04T03:23:38;17.10;1.00
18305;DHT22;9278;52.156;21.048;2022-07-04T03:26:07;17.20;1.00
18305;DHT22;9278;52.156;21.048;2022-07-04T03:28:36;17.20;1.00
18305;DHT22;9278;52.156;21.048;2022-07-04T03:31:04;17.30;1.00
18305;DHT22;9278;52.156;21.048;2022-07-04T03:33:32;17.30;1.00
18305;DHT22;9278;52.156;21.048;2022-07-04T03:36:02;17.30;1.00
18305;DHT22;9278;52.156;21.048;2022-07-04T03:38:30;17.40;1.00
18305;DHT22;9278;52.156;21.048;2022-07-04T03:40:58;17.50;1.00
18305;DHT22;9278;52.156;21.048;2022-07-04T03:43:26;17.50;1.00
18305;DHT22;9278;52.156;21.048;2022-07-04T03:45:54;17.60;1.00
18305;DHT22;9278;52.156;21.048;2022-07-04T03:48:22;17.70;1.00
18305;DHT22;9278;52.156;21.048;2022-07-04T03:50:50;17.70;1.00
18305;DHT22;9278;52.156;21.048;2022-07-04T03:53:20;17.90;1.00
18305;DHT22;9278;52.156;21.048;2022-07-04T03:55:49;17.90;1.00
18305;DHT22;9278;52.156;21.048;2022-07-04T03:58:17;18.10;99.90
18305;DHT22;9278;52.156;21.048;2022-07-04T04:00:45;18.20;99.90
18305;DHT22;9278;52.156;21.048;2022-07-04T04:03:13;18.30;99.90
18305;DHT22;9278;52.156;21.048;2022-07-04T04:05:58;18.50;99.90
18305;DHT22;9278;52.156;21.048;2022-07-04T04:08:28;18.60;99.90
18305;DHT22;9278;52.156;21.048;2022-07-04T04:10:56;18.70;99.90
18305;DHT22;9278;52.156;21.048;2022-07-04T04:13:27;18.70;99.90
18305;DHT22;9278;52.156;21.048;2022-07-04T04:15:55;18.80;99.90
18305;DHT22;9278;52.156;21.048;2022-07-04T04:18:23;18.90;99.90
18305;DHT22;9278;52.156;21.048;2022-07-04T04:20:51;18.90;99.90
18305;DHT22;9278;52.156;21.048;2022-07-04T04:23:19;19.00;99.90
18305;DHT22;9278;52.156;21.048;2022-07-04T04:25:49;19.10;99.90
18305;DHT22;9278;52.156;21.048;2022-07-04T04:28:22;19.10;99.90
18305;DHT22;9278;52.156;21.048;2022-07-04T04:30:50;19.10;99.90
18305;DHT22;9278;52.156;21.048;2022-07-04T04:33:18;19.30;99.90
18305;DHT22;9278;52.156;21.048;2022-07-04T04:35:46;19.40;99.90
18305;DHT22;9278;52.156;21.048;2022-07-04T04:38:15;19.60;99.90
18305;DHT22;9278;52.156;21.048;2022-07-04T04:40:43;19.60;99.90
18305;DHT22;9278;52.156;21.048;2022-07-04T04:43:12;19.60;99.90
18305;DHT22;9278;52.156;21.048;2022-07-04T04:45:40;19.60;99.90
18305;DHT22;9278;52.156;21.048;2022-07-04T04:48:09;19.80;99.90
18305;DHT22;9278;52.156;21.048;2022-07-04T04:50:37;19.90;99.90
18305;DHT22;9278;52.156;21.048;2022-07-04T04:53:05;19.80;99.90
18305;DHT22;9278;52.156;21.048;2022-07-04T04:55:33;19.80;99.90
18305;DHT22;9278;52.156;21.048;2022-07-04T04:58:01;19.90;99.90
18305;DHT22;9278;52.156;21.048;2022-07-04T05:00:31;19.90;99.90
18305;DHT22;9278;52.156;21.048;2022-07-04T05:02:59;19.90;99.90
18305;DHT22;9278;52.156;21.048;2022-07-04T05:05:27;20.00;99.90
18305;DHT22;9278;52.156;21.048;2022-07-04T05:07:55;20.20;99.90
18305;DHT22;9278;52.156;21.048;2022-07-04T05:10:23;20.20;99.90
18305;DHT22;9278;52.156;21.048;2022-07-04T05:12:51;20.20;99.90
18305;DHT22;9278;52.156;21.048;2022-07-04T05:15:19;20.30;99.90
18305;DHT22;9278;52.156;21.048;2022-07-04T05:17:49;20.30;99.90
18305;DHT22;9278;52.156;21.048;2022-07-04T05:20:17;20.30;99.90
18305;DHT22;9278;52.156;21.048;2022-07-04T05:22:45;20.60;99.90
18305;DHT22;9278;52.156;21.048;2022-07-04T05:25:14;20.70;99.90
18305;DHT22;9278;52.156;21.048;2022-07-04T05:27:42;20.70;99.90
18305;DHT22;9278;52.156;21.048;2022-07-04T05:30:11;21.60;99.90
18305;DHT22;9278;52.156;21.048;2022-07-04T05:32:39;21.40;99.90
18305;DHT22;9278;52.156;21.048;2022-07-04T05:35:09;21.30;99.90
18305;DHT22;9278;52.156;21.048;2022-07-04T05:37:37;21.40;99.90
18305;DHT22;9278;52.156;21.048;2022-07-04T05:40:06;21.70;99.90
18305;DHT22;9278;52.156;21.048;2022-07-04T05:42:35;22.20;99.90
18305;DHT22;9278;52.156;21.048;2022-07-04T05:45:04;22.10;99.90
18305;DHT22;9278;52.156;21.048;2022-07-04T05:47:32;21.90;99.90
18305;DHT22;9278;52.156;21.048;2022-07-04T05:50:01;21.90;99.90
18305;DHT22;9278;52.156;21.048;2022-07-04T05:52:30;22.00;99.90
18305;DHT22;9278;52.156;21.048;2022-07-04T05:54:58;21.90;99.90
18305;DHT22;9278;52.156;21.048;2022-07-04T05:57:27;22.10;99.90
18305;DHT22;9278;52.156;21.048;2022-07-04T05:59:55;22.10;99.90
18305;DHT22;9278;52.156;21.048;2022-07-04T06:02:23;21.90;99.90
18305;DHT22;9278;52.156;21.048;2022-07-04T06:04:51;21.90;99.90
18305;DHT22;9278;52.156;21.048;2022-07-04T06:07:20;21.90;99.90
18305;DHT22;9278;52.156;21.048;2022-07-04T06:09:49;22.30;99.90
18305;DHT22;9278;52.156;21.048;2022-07-04T06:12:17;22.40;99.90
18305;DHT22;9278;52.156;21.048;2022-07-04T06:14:45;22.20;99.90
18305;DHT22;9278;52.156;21.048;2022-07-04T06:17:14;22.60;99.90
18305;DHT22;9278;52.156;21.048;2022-07-04T06:19:42;22.60;99.90
18305;DHT22;9278;52.156;21.048;2022-07-04T06:22:10;22.60;99.90
18305;DHT22;9278;52.156;21.048;2022-07-04T06:24:38;22.50;99.90
18305;DHT22;9278;52.156;21.048;2022-07-04T06:27:08;22.80;99.90
18305;DHT22;9278;52.156;21.048;2022-07-04T06:29:37;22.70;99.90
18305;DHT22;9278;52.156;21.048;2022-07-04T06:32:06;23.00;99.90
18305;DHT22;9278;52.156;21.048;2022-07-04T06:34:34;23.10;99.90
18305;DHT22;9278;52.156;21.048;2022-07-04T06:37:19;22.90;99.90
18305;DHT22;9278;52.156;21.048;2022-07-04T06:39:48;22.80;99.90
18305;DHT22;9278;52.156;21.048;2022-07-04T06:42:17;23.10;99.90
18305;DHT22;9278;52.156;21.048;2022-07-04T06:44:48;23.50;99.90
18305;DHT22;9278;52.156;21.048;2022-07-04T06:47:16;23.50;99.90
18305;DHT22;9278;52.156;21.048;2022-07-04T06:49:44;23.80;99.90
18305;DHT22;9278;52.156;21.048;2022-07-04T06:52:13;23.90;99.90
18305;DHT22;9278;52.156;21.048;2022-07-04T06:54:41;23.90;99.90
18305;DHT22;9278;52.156;21.048;2022-07-04T06:57:09;23.90;99.90
18305;DHT22;9278;52.156;21.048;2022-07-04T07:00:00;23.60;99.90
18305;DHT22;9278;52.156;21.048;2022-07-04T07:02:29;23.70;99.90
18305;DHT22;9278;52.156;21.048;2022-07-04T07:04:57;23.50;99.90
18305;DHT22;9278;52.156;21.048;2022-07-04T07:07:33;23.50;99.90
18305;DHT22;9278;52.156;21.048;2022-07-04T07:10:01;23.70;99.90
18305;DHT22;9278;52.156;21.048;2022-07-04T07:12:30;24.20;99.90
18305;DHT22;9278;52.156;21.048;2022-07-04T07:14:59;24.50;99.90
18305;DHT22;9278;52.156;21.048;2022-07-04T07:17:28;24.50;99.90
18305;DHT22;9278;52.156;21.048;2022-07-04T07:19:56;24.70;99.90
18305;DHT22;9278;52.156;21.048;2022-07-04T07:22:24;24.60;99.90
18305;DHT22;9278;52.156;21.048;2022-07-04T07:24:52;24.10;99.90
18305;DHT22;9278;52.156;21.048;2022-07-04T07:27:20;24.20;99.90
18305;DHT22;9278;52.156;21.048;2022-07-04T07:29:49;24.50;99.90
18305;DHT22;9278;52.156;21.048;2022-07-04T07:32:19;24.80;99.90
18305;DHT22;9278;52.156;21.048;2022-07-04T07:34:47;24.90;99.90
18305;DHT22;9278;52.156;21.048;2022-07-04T07:37:15;24.80;99.90
18305;DHT22;9278;52.156;21.048;2022-07-04T07:39:44;24.90;99.90
18305;DHT22;9278;52.156;21.048;2022-07-04T07:42:13;25.20;99.90
18305;DHT22;9278;52.156;21.048;2022-07-04T07:44:41;25.20;99.90
18305;DHT22;9278;52.156;21.048;2022-07-04T07:47:12;25.20;99.90
18305;DHT22;9278;52.156;21.048;2022-07-04T07:49:42;25.10;99.90
18305;DHT22;9278;52.156;21.048;2022-07-04T07:52:10;25.20;99.90
18305;DHT22;9278;52.156;21.048;2022-07-04T07:54:38;25.50;99.90
18305;DHT22;9278;52.156;21.048;2022-07-04T07:57:25;25.50;99.90
18305;DHT22;9278;52.156;21.048;2022-07-04T07:59:53;25.70;99.90
18305;DHT22;9278;52.156;21.048;2022-07-04T08:02:21;25.80;99.90
18305;DHT22;9278;52.156;21.048;2022-07-04T08:05:13;26.30;99.90
18305;DHT22;9278;52.156;21.048;2022-07-04T08:07:40;26.40;99.90
18305;DHT22;9278;52.156;21.048;2022-07-04T08:10:08;26.30;99.90
18305;DHT22;9278;52.156;21.048;2022-07-04T08:12:36;25.80;99.90
18305;DHT22;9278;52.156;21.048;2022-07-04T08:15:05;25.50;99.90
18305;DHT22;9278;52.156;21.048;2022-07-04T08:17:34;25.50;99.90
18305;DHT22;9278;52.156;21.048;2022-07-04T08:20:03;25.80;99.90
18305;DHT22;9278;52.156;21.048;2022-07-04T08:22:33;26.00;99.90
18305;DHT22;9278;52.156;21.048;2022-07-04T08:25:01;26.00;99.90
18305;DHT22;9278;52.156;21.048;2022-07-04T08:27:29;25.90;99.90
18305;DHT22;9278;52.156;21.048;2022-07-04T08:29:59;25.80;99.90
18305;DHT22;9278;52.156;21.048;2022-07-04T08:32:27;26.00;99.90
18305;DHT22;9278;52.156;21.048;2022-07-04T08:34:56;26.20;99.90
18305;DHT22;9278;52.156;21.048;2022-07-04T08:37:24;26.60;99.90
18305;DHT22;9278;52.156;21.048;2022-07-04T08:39:54;26.90;99.90
18305;DHT22;9278;52.156;21.048;2022-07-04T08:42:22;26.90;99.90
18305;DHT22;9278;52.156;21.048;2022-07-04T08:44:52;26.90;99.90
18305;DHT22;9278;52.156;21.048;2022-07-04T08:47:23;26.40;99.90
18305;DHT22;9278;52.156;21.048;2022-07-04T08:49:54;26.50;99.90
18305;DHT22;9278;52.156;21.048;2022-07-04T08:52:34;25.90;99.90
18305;DHT22;9278;52.156;21.048;2022-07-04T08:55:05;26.30;99.90
18305;DHT22;9278;52.156;21.048;2022-07-04T08:57:52;26.30;99.90
18305;DHT22;9278;52.156;21.048;2022-07-04T09:00:38;26.10;99.90
18305;DHT22;9278;52.156;21.048;2022-07-04T09:03:06;26.70;99.90
18305;DHT22;9278;52.156;21.048;2022-07-04T09:05:35;27.00;99.90
18305;DHT22;9278;52.156;21.048;2022-07-04T09:08:05;27.10;99.90
18305;DHT22;9278;52.156;21.048;2022-07-04T09:10:36;26.60;99.90
18305;DHT22;9278;52.156;21.048;2022-07-04T09:13:05;25.90;99.90
18305;DHT22;9278;52.156;21.048;2022-07-04T09:15:38;26.10;99.90
18305;DHT22;9278;52.156;21.048;2022-07-04T09:18:06;26.40;99.90
18305;DHT22;9278;52.156;21.048;2022-07-04T09:20:46;26.90;99.90
18305;DHT22;9278;52.156;21.048;2022-07-04T09:23:17;27.30;99.90
18305;DHT22;9278;52.156;21.048;2022-07-04T09:25:47;27.40;99.90
18305;DHT22;9278;52.156;21.048;2022-07-04T09:28:28;27.10;99.90
18305;DHT22;9278;52.156;21.048;2022-07-04T09:30:56;26.20;99.90
18305;DHT22;9278;52.156;21.048;2022-07-04T09:33:50;25.70;99.90
18305;DHT22;9278;52.156;21.048;2022-07-04T09:36:20;26.10;99.90
18305;DHT22;9278;52.156;21.048;2022-07-04T09:39:15;25.60;99.90
18305;DHT22;9278;52.156;21.048;2022-07-04T09:41:54;26.40;99.90
18305;DHT22;9278;52.156;21.048;2022-07-04T09:44:24;26.60;99.90
18305;DHT22;9278;52.156;21.048;2022-07-04T09:46:52;26.80;99.90
18305;DHT22;9278;52.156;21.048;2022-07-04T09:49:21;26.80;99.90
18305;DHT22;9278;52.156;21.048;2022-07-04T09:51:50;26.90;99.90
18305;DHT22;9278;52.156;21.048;2022-07-04T09:54:23;27.30;99.90
18305;DHT22;9278;52.156;21.048;2022-07-04T09:56:55;28.00;99.90
18305;DHT22;9278;52.156;21.048;2022-07-04T09:59:25;27.00;99.90
18305;DHT22;9278;52.156;21.048;2022-07-04T10:02:06;27.60;99.90
18305;DHT22;9278;52.156;21.048;2022-07-04T10:04:42;27.40;99.90
18305;DHT22;9278;52.156;21.048;2022-07-04T10:07:11;27.60;99.90
18305;DHT22;9278;52.156;21.048;2022-07-04T10:09:39;27.60;99.90
18305;DHT22;9278;52.156;21.048;2022-07-04T10:12:08;27.60;99.90
18305;DHT22;9278;52.156;21.048;2022-07-04T10:14:37;27.80;99.90
18305;DHT22;9278;52.156;21.048;2022-07-04T10:17:06;28.50;99.90
18305;DHT22;9278;52.156;21.048;2022-07-04T10:19:34;29.20;95.30
18305;DHT22;9278;52.156;21.048;2022-07-04T10:22:03;28.70;70.80
18305;DHT22;9278;52.156;21.048;2022-07-04T10:24:32;28.80;93.90
18305;DHT22;9278;52.156;21.048;2022-07-04T10:27:00;28.90;93.10
18305;DHT22;9278;52.156;21.048;2022-07-04T10:29:29;29.10;90.70
18305;DHT22;9278;52.156;21.048;2022-07-04T10:31:58;27.50;91.60
18305;DHT22;9278;52.156;21.048;2022-07-04T10:34:26;27.10;94.70
18305;DHT22;9278;52.156;21.048;2022-07-04T10:36:55;27.30;95.50
18305;DHT22;9278;52.156;21.048;2022-07-04T10:39:24;27.60;93.80
18305;DHT22;9278;52.156;21.048;2022-07-04T10:41:57;27.60;93.00
18305;DHT22;9278;52.156;21.048;2022-07-04T10:44:25;27.70;92.70
18305;DHT22;9278;52.156;21.048;2022-07-04T10:46:55;28.30;92.20
18305;DHT22;9278;52.156;21.048;2022-07-04T10:49:26;29.40;89.20
18305;DHT22;9278;52.156;21.048;2022-07-04T10:51:56;29.10;87.20
18305;DHT22;9278;52.156;21.048;2022-07-04T10:54:30;29.00;84.40
18305;DHT22;9278;52.156;21.048;2022-07-04T10:57:09;28.70;83.50
18305;DHT22;9278;52.156;21.048;2022-07-04T10:59:39;27.30;90.10
18305;DHT22;9278;52.156;21.048;2022-07-04T11:02:26;28.10;90.30
18305;DHT22;9278;52.156;21.048;2022-07-04T11:04:57;28.50;87.60
18305;DHT22;9278;52.156;21.048;2022-07-04T11:07:56;28.60;85.00
18305;DHT22;9278;52.156;21.048;2022-07-04T11:10:25;29.20;81.10
18305;DHT22;9278;52.156;21.048;2022-07-04T11:13:16;29.70;76.80
18305;DHT22;9278;52.156;21.048;2022-07-04T11:15:58;29.90;73.70
18305;DHT22;9278;52.156;21.048;2022-07-04T11:18:29;29.60;75.30
18305;DHT22;9278;52.156;21.048;2022-07-04T11:20:57;29.40;75.40
18305;DHT22;9278;52.156;21.048;2022-07-04T11:23:25;28.90;78.90
18305;DHT22;9278;52.156;21.048;2022-07-04T11:25:54;29.80;75.50
18305;DHT22;9278;52.156;21.048;2022-07-04T11:28:25;29.50;74.60
18305;DHT22;9278;52.156;21.048;2022-07-04T11:31:12;30.30;70.40
18305;DHT22;9278;52.156;21.048;2022-07-04T11:33:43;31.00;65.50
18305;DHT22;9278;52.156;21.048;2022-07-04T11:36:12;30.90;59.40
18305;DHT22;9278;52.156;21.048;2022-07-04T11:38:59;29.80;67.10
18305;DHT22;9278;52.156;21.048;2022-07-04T11:41:29;30.00;65.60
18305;DHT22;9278;52.156;21.048;2022-07-04T11:44:16;29.90;64.10
18305;DHT22;9278;52.156;21.048;2022-07-04T11:47:08;30.60;61.40
18305;DHT22;9278;52.156;21.048;2022-07-04T11:49:43;31.20;56.10
18305;DHT22;9278;52.156;21.048;2022-07-04T11:52:12;28.70;66.60
18305;DHT22;9278;52.156;21.048;2022-07-04T11:54:42;28.60;71.20
18305;DHT22;9278;52.156;21.048;2022-07-04T11:57:22;28.40;71.20
18305;DHT22;9278;52.156;21.048;2022-07-04T11:59:58;28.10;76.60
18305;DHT22;9278;52.156;21.048;2022-07-04T12:02:28;28.70;75.30
18305;DHT22;9278;52.156;21.048;2022-07-04T12:04:58;28.80;73.10
18305;DHT22;9278;52.156;21.048;2022-07-04T12:07:28;28.70;72.40
18305;DHT22;9278;52.156;21.048;2022-07-04T12:09:56;28.80;69.10
18305;DHT22;9278;52.156;21.048;2022-07-04T12:12:24;29.40;65.00
18305;DHT22;9278;52.156;21.048;2022-07-04T12:14:57;29.10;67.50
18305;DHT22;9278;52.156;21.048;2022-07-04T12:17:31;28.60;65.70
18305;DHT22;9278;52.156;21.048;2022-07-04T12:20:02;28.80;66.20
18305;DHT22;9278;52.156;21.048;2022-07-04T12:22:34;28.80;68.50
18305;DHT22;9278;52.156;21.048;2022-07-04T12:25:04;28.70;67.40
18305;DHT22;9278;52.156;21.048;2022-07-04T12:27:34;29.00;66.30
18305;DHT22;9278;52.156;21.048;2022-07-04T12:30:03;29.40;59.40
18305;DHT22;9278;52.156;21.048;2022-07-04T12:32:49;29.10;62.00
18305;DHT22;9278;52.156;21.048;2022-07-04T12:35:38;29.60;60.90
18305;DHT22;9278;52.156;21.048;2022-07-04T12:38:08;30.70;56.00
18305;DHT22;9278;52.156;21.048;2022-07-04T12:40:37;30.20;51.90
18305;DHT22;9278;52.156;21.048;2022-07-04T12:43:17;29.40;56.50
18305;DHT22;9278;52.156;21.048;2022-07-04T12:45:47;28.40;63.10
18305;DHT22;9278;52.156;21.048;2022-07-04T12:48:24;28.10;62.50
18305;DHT22;9278;52.156;21.048;2022-07-04T12:50:59;28.60;63.40
18305;DHT22;9278;52.156;21.048;2022-07-04T12:53:36;29.10;59.70
18305;DHT22;9278;52.156;21.048;2022-07-04T12:56:05;28.90;60.60
18305;DHT22;9278;52.156;21.048;2022-07-04T12:58:34;29.40;61.70
18305;DHT22;9278;52.156;21.048;2022-07-04T13:01:03;29.50;56.80
18305;DHT22;9278;52.156;21.048;2022-07-04T13:03:31;29.70;54.60
18305;DHT22;9278;52.156;21.048;2022-07-04T13:06:00;30.60;51.30
18305;DHT22;9278;52.156;21.048;2022-07-04T13:08:28;30.30;52.80
18305;DHT22;9278;52.156;21.048;2022-07-04T13:10:57;29.40;51.60
18305;DHT22;9278;52.156;21.048;2022-07-04T13:13:39;28.90;57.90
18305;DHT22;9278;52.156;21.048;2022-07-04T13:16:07;28.50;59.60
18305;DHT22;9278;52.156;21.048;2022-07-04T13:18:35;28.30;60.10
18305;DHT22;9278;52.156;21.048;2022-07-04T13:21:05;27.90;63.60
18305;DHT22;9278;52.156;21.048;2022-07-04T13:23:33;27.80;62.30
18305;DHT22;9278;52.156;21.048;2022-07-04T13:26:01;27.90;62.10
18305;DHT22;9278;52.156;21.048;2022-07-04T13:28:30;27.80;64.20
18305;DHT22;9278;52.156;21.048;2022-07-04T13:30:58;27.80;59.10
18305;DHT22;9278;52.156;21.048;2022-07-04T13:33:27;28.20;61.70
18305;DHT22;9278;52.156;21.048;2022-07-04T13:35:55;28.30;61.40
18305;DHT22;9278;52.156;21.048;2022-07-04T13:38:25;28.20;62.80
18305;DHT22;9278;52.156;21.048;2022-07-04T13:40:53;28.40;61.50
18305;DHT22;9278;52.156;21.048;2022-07-04T13:43:23;28.20;61.00
18305;DHT22;9278;52.156;21.048;2022-07-04T13:45:52;28.20;60.90
18305;DHT22;9278;52.156;21.048;2022-07-04T13:48:20;28.00;61.70
18305;DHT22;9278;52.156;21.048;2022-07-04T13:50:48;27.90;63.70
18305;DHT22;9278;52.156;21.048;2022-07-04T13:53:17;28.00;66.20
18305;DHT22;9278;52.156;21.048;2022-07-04T13:55:46;27.90;65.50
18305;DHT22;9278;52.156;21.048;2022-07-04T13:58:15;27.80;66.20
18305;DHT22;9278;52.156;21.048;2022-07-04T14:00:43;27.80;64.30
18305;DHT22;9278;52.156;21.048;2022-07-04T14:03:13;28.00;66.40
18305;DHT22;9278;52.156;21.048;2022-07-04T14:05:41;27.50;65.60
18305;DHT22;9278;52.156;21.048;2022-07-04T14:08:10;27.70;66.30
18305;DHT22;9278;52.156;21.048;2022-07-04T14:10:38;27.50;65.90
18305;DHT22;9278;52.156;21.048;2022-07-04T14:13:07;27.90;66.80
18305;DHT22;9278;52.156;21.048;2022-07-04T14:15:37;28.10;64.80
18305;DHT22;9278;52.156;21.048;2022-07-04T14:18:05;28.30;65.20
18305;DHT22;9278;52.156;21.048;2022-07-04T14:20:38;28.40;64.80
18305;DHT22;9278;52.156;21.048;2022-07-04T14:23:06;28.50;66.20
18305;DHT22;9278;52.156;21.048;2022-07-04T14:25:34;28.70;62.50
18305;DHT22;9278;52.156;21.048;2022-07-04T14:28:02;28.40;63.80
18305;DHT22;9278;52.156;21.048;2022-07-04T14:30:32;28.10;65.00
18305;DHT22;9278;52.156;21.048;2022-07-04T14:33:00;28.00;65.20
18305;DHT22;9278;52.156;21.048;2022-07-04T14:35:29;28.20;65.30
18305;DHT22;9278;52.156;21.048;2022-07-04T14:37:57;28.40;65.50
18305;DHT22;9278;52.156;21.048;2022-07-04T14:40:25;28.50;62.70
18305;DHT22;9278;52.156;21.048;2022-07-04T14:42:53;28.50;63.00
18305;DHT22;9278;52.156;21.048;2022-07-04T14:45:21;28.20;63.90
18305;DHT22;9278;52.156;21.048;2022-07-04T14:47:51;28.10;65.20
18305;DHT22;9278;52.156;21.048;2022-07-04T14:50:19;28.10;63.10
18305;DHT22;9278;52.156;21.048;2022-07-04T14:52:47;28.20;64.50
18305;DHT22;9278;52.156;21.048;2022-07-04T14:55:17;28.20;64.10
18305;DHT22;9278;52.156;21.048;2022-07-04T14:57:47;28.30;63.10
18305;DHT22;9278;52.156;21.048;2022-07-04T15:00:16;28.30;62.00
18305;DHT22;9278;52.156;21.048;2022-07-04T15:02:44;28.30;63.30
18305;DHT22;9278;52.156;21.048;2022-07-04T15:05:15;28.50;62.60
18305;DHT22;9278;52.156;21.048;2022-07-04T15:07:43;28.60;61.60
18305;DHT22;9278;52.156;21.048;2022-07-04T15:10:11;28.80;60.40
18305;DHT22;9278;52.156;21.048;2022-07-04T15:12:39;28.60;60.80
18305;DHT22;9278;52.156;21.048;2022-07-04T15:15:09;28.50;58.50
18305;DHT22;9278;52.156;21.048;2022-07-04T15:17:57;28.70;58.70
18305;DHT22;9278;52.156;21.048;2022-07-04T15:20:27;29.00;57.70
18305;DHT22;9278;52.156;21.048;2022-07-04T15:23:13;28.90;56.50
18305;DHT22;9278;52.156;21.048;2022-07-04T15:25:59;28.70;57.10
18305;DHT22;9278;52.156;21.048;2022-07-04T15:28:27;28.70;58.00
18305;DHT22;9278;52.156;21.048;2022-07-04T15:30:55;28.60;57.60
18305;DHT22;9278;52.156;21.048;2022-07-04T15:33:23;28.60;57.30
18305;DHT22;9278;52.156;21.048;2022-07-04T15:35:54;28.50;60.60
18305;DHT22;9278;52.156;21.048;2022-07-04T15:38:23;28.80;58.30
18305;DHT22;9278;52.156;21.048;2022-07-04T15:40:51;28.90;55.20
18305;DHT22;9278;52.156;21.048;2022-07-04T15:43:19;29.10;55.10
18305;DHT22;9278;52.156;21.048;2022-07-04T15:45:47;29.80;51.90
18305;DHT22;9278;52.156;21.048;2022-07-04T15:48:15;30.40;46.90
18305;DHT22;9278;52.156;21.048;2022-07-04T15:50:43;30.50;45.20
18305;DHT22;9278;52.156;21.048;2022-07-04T15:53:13;30.60;42.60
18305;DHT22;9278;52.156;21.048;2022-07-04T15:55:41;30.00;45.80